sensor_id;sensor_type;location;lat;lon;timestamp;pressure;altitude;pressure_sealevel;temperature;humidity
74790;BME280;63318;52.406;13.416;2024-02-15T00:00:04;101419.73;;;8.35;92.78
74790;BME280;63318;52.406;13.416;2024-02-15T00:02:32;101421.03;;;8.34;93.04
74790;BME280;63318;52.406;13.416;2024-02-15T00:05:00;101420.80;;;8.33;93.04
74790;BME280;63318;52.406;13.416;2024-02-15T00:07:29;101423.23;;;8.33;93.19
74790;BME280;63318;52.406;13.416;2024-02-15T00:09:57;101419.83;;;8.32;93.10
74790;BME280;63318;52.406;13.416;2024-02-15T00:12:25;101421.92;;;8.32;93.12
74790;BME280;63318;52.406;13.416;2024-02-15T00:14:53;101420.48;;;8.32;93.26
74790;BME280;63318;52.406;13.416;2024-02-15T00:17:21;101419.98;;;8.31;93.19
74790;BME280;63318;52.406;13.416;2024-02-15T00:19:50;101418.33;;;8.31;93.26
74790;BME280;63318;52.406;13.416;2024-02-15T00:22:18;101419.16;;;8.32;93.32
74790;BME280;63318;52.406;13.416;2024-02-15T00:24:46;101419.99;;;8.32;93.42
74790;BME280;63318;52.406;13.416;2024-02-15T00:27:14;101417.56;;;8.33;93.39
74790;BME280;63318;52.406;13.416;2024-02-15T00:29:42;101420.30;;;8.33;93.22
74790;BME280;63318;52.406;13.416;2024-02-15T00:32:11;101421.86;;;8.33;93.36
74790;BME280;63318;52.406;13.416;2024-02-15T00:34:39;101424.58;;;8.34;93.41
74790;BME280;63318;52.406;13.416;2024-02-15T00:37:07;101425.63;;;8.34;93.55
74790;BME280;63318;52.406;13.416;2024-02-15T00:39:35;101421.32;;;8.34;93.29
74790;BME280;63318;52.406;13.416;2024-02-15T00:42:04;101421.99;;;8.35;93.52
74790;BME280;63318;52.406;13.416;2024-02-15T00:44:32;101425.34;;;8.36;93.58
74790;BME280;63318;52.406;13.416;2024-02-15T00:47:00;101425.34;;;8.36;93.56
74790;BME280;63318;52.406;13.416;2024-02-15T00:49:29;101426.40;;;8.36;93.49
74790;BME280;63318;52.406;13.416;2024-02-15T00:51:57;101427.80;;;8.37;93.62
74790;BME280;63318;52.406;13.416;2024-02-15T00:54:25;101429.58;;;8.37;93.63
74790;BME280;63318;52.406;13.416;2024-02-15T00:56:53;101432.92;;;8.38;93.84
74790;BME280;63318;52.406;13.416;2024-02-15T00:59:21;101428.00;;;8.38;93.68
74790;BME280;63318;52.406;13.416;2024-02-15T01:01:50;101430.71;;;8.38;93.68
74790;BME280;63318;52.406;13.416;2024-02-15T01:04:18;101431.33;;;8.39;93.66
74790;BME280;63318;52.406;13.416;2024-02-15T01:06:46;101428.29;;;8.39;93.75
74790;BME280;63318;52.406;13.416;2024-02-15T01:09:14;101433.27;;;8.39;93.76
74790;BME280;63318;52.406;13.416;2024-02-15T01:11:42;101426.37;;;8.40;93.86
74790;BME280;63318;52.406;13.416;2024-02-15T01:14:11;101422.58;;;8.41;93.78
74790;BME280;63318;52.406;13.416;2024-02-15T01:16:39;101421.52;;;8.41;93.86
74790;BME280;63318;52.406;13.416;2024-02-15T01:19:07;101420.20;;;8.42;93.81
74790;BME280;63318;52.406;13.416;2024-02-15T01:21:35;101418.33;;;8.42;93.76
74790;BME280;63318;52.406;13.416;2024-02-15T01:24:04;101414.96;;;8.42;93.67
74790;BME280;63318;52.406;13.416;2024-02-15T01:26:33;101416.92;;;8.43;93.91
74790;BME280;63318;52.406;13.416;2024-02-15T01:29:01;101412.98;;;8.43;93.90
74790;BME280;63318;52.406;13.416;2024-02-15T01:31:29;101411.99;;;8.43;93.92
74790;BME280;63318;52.406;13.416;2024-02-15T01:33:57;101409.90;;;8.44;94.06
74790;BME280;63318;52.406;13.416;2024-02-15T01:36:25;101414.23;;;8.45;93.98
74790;BME280;63318;52.406;13.416;2024-02-15T01:38:53;101413.84;;;8.44;94.08
74790;BME280;63318;52.406;13.416;2024-02-15T01:41:22;101410.82;;;8.45;93.77
74790;BME280;63318;52.406;13.416;2024-02-15T01:43:50;101410.59;;;8.45;94.03
74790;BME280;63318;52.406;13.416;2024-02-15T01:46:18;101411.66;;;8.45;94.11
74790;BME280;63318;52.406;13.416;2024-02-15T01:48:49;101411.98;;;8.46;94.26
74790;BME280;63318;52.406;13.416;2024-02-15T01:51:17;101413.09;;;8.46;94.31
74790;BME280;63318;52.406;13.416;2024-02-15T01:53:45;101415.21;;;8.46;94.26
74790;BME280;63318;52.406;13.416;2024-02-15T01:56:15;101410.56;;;8.47;94.19
74790;BME280;63318;52.406;13.416;2024-02-15T01:58:46;101408.52;;;8.47;94.33
74790;BME280;63318;52.406;13.416;2024-02-15T02:01:16;101407.96;;;8.47;94.18
74790;BME280;63318;52.406;13.416;2024-02-15T02:03:45;101405.31;;;8.47;94.14
74790;BME280;63318;52.406;13.416;2024-02-15T02:06:13;101402.84;;;8.47;94.29
74790;BME280;63318;52.406;13.416;2024-02-15T02:08:42;101402.46;;;8.48;94.30
74790;BME280;63318;52.406;13.416;2024-02-15T02:11:10;101398.73;;;8.48;94.42
74790;BME280;63318;52.406;13.416;2024-02-15T02:13:38;101401.39;;;8.47;94.44
74790;BME280;63318;52.406;13.416;2024-02-15T02:16:25;101392.53;;;8.47;94.36
74790;BME280;63318;52.406;13.416;2024-02-15T02:18:54;101390.83;;;8.48;94.72
74790;BME280;63318;52.406;13.416;2024-02-15T02:21:22;101389.83;;;8.48;94.31
74790;BME280;63318;52.406;13.416;2024-02-15T02:23:55;101396.80;;;8.48;94.37
74790;BME280;63318;52.406;13.416;2024-02-15T02:26:24;101395.27;;;8.49;94.24
74790;BME280;63318;52.406;13.416;2024-02-15T02:28:53;101392.41;;;8.49;94.27
74790;BME280;63318;52.406;13.416;2024-02-15T02:31:21;101393.64;;;8.50;94.40
74790;BME280;63318;52.406;13.416;2024-02-15T02:33:52;101392.36;;;8.50;94.46
74790;BME280;63318;52.406;13.416;2024-02-15T02:36:21;101394.98;;;8.50;94.36
74790;BME280;63318;52.406;13.416;2024-02-15T02:38:49;101395.38;;;8.50;94.39
74790;BME280;63318;52.406;13.416;2024-02-15T02:41:17;101395.43;;;8.51;94.40
74790;BME280;63318;52.406;13.416;2024-02-15T02:43:45;101396.83;;;8.52;94.45
74790;BME280;63318;52.406;13.416;2024-02-15T02:46:14;101391.30;;;8.52;94.66
74790;BME280;63318;52.406;13.416;2024-02-15T02:48:42;101388.59;;;8.52;94.86
74790;BME280;63318;52.406;13.416;2024-02-15T02:51:10;101391.58;;;8.52;94.84
74790;BME280;63318;52.406;13.416;2024-02-15T02:53:38;101391.09;;;8.53;94.68
74790;BME280;63318;52.406;13.416;2024-02-15T02:56:07;101389.65;;;8.52;94.74
74790;BME280;63318;52.406;13.416;2024-02-15T02:58:35;101389.21;;;8.53;94.87
74790;BME280;63318;52.406;13.416;2024-02-15T03:01:03;101391.20;;;8.53;94.61
74790;BME280;63318;52.406;13.416;2024-02-15T03:03:31;101393.36;;;8.55;94.41
74790;BME280;63318;52.406;13.416;2024-02-15T03:06:00;101391.09;;;8.55;94.70
74790;BME280;63318;52.406;13.416;2024-02-15T03:08:28;101395.29;;;8.57;94.71
74790;BME280;63318;52.406;13.416;2024-02-15T03:10:56;101393.45;;;8.56;94.89
74790;BME280;63318;52.406;13.416;2024-02-15T03:13:24;101399.67;;;8.57;94.99
74790;BME280;63318;52.406;13.416;2024-02-15T03:15:53;101401.45;;;8.57;94.86
74790;BME280;63318;52.406;13.416;2024-02-15T03:18:21;101398.45;;;8.58;94.85
74790;BME280;63318;52.406;13.416;2024-02-15T03:20:49;101397.20;;;8.58;94.91
74790;BME280;63318;52.406;13.416;2024-02-15T03:23:17;101398.98;;;8.59;94.90
74790;BME280;63318;52.406;13.416;2024-02-15T03:25:45;101392.88;;;8.59;94.93
74790;BME280;63318;52.406;13.416;2024-02-15T03:28:14;101393.01;;;8.59;94.94
74790;BME280;63318;52.406;13.416;2024-02-15T03:30:43;101393.23;;;8.60;95.01
74790;BME280;63318;52.406;13.416;2024-02-15T03:33:11;101389.74;;;8.60;94.95
74790;BME280;63318;52.406;13.416;2024-02-15T03:35:40;101389.65;;;8.60;95.05
74790;BME280;63318;52.406;13.416;2024-02-15T03:38:08;101393.14;;;8.61;94.96
74790;BME280;63318;52.406;13.416;2024-02-15T03:40:36;101390.88;;;8.61;95.20
74790;BME280;63318;52.406;13.416;2024-02-15T03:43:04;101392.61;;;8.62;95.00
74790;BME280;63318;52.406;13.416;2024-02-15T03:45:36;101389.67;;;8.61;94.95
74790;BME280;63318;52.406;13.416;2024-02-15T03:48:05;101391.67;;;8.62;95.11
74790;BME280;63318;52.406;13.416;2024-02-15T03:50:33;101393.40;;;8.62;95.13
74790;BME280;63318;52.406;13.416;2024-02-15T03:53:01;101396.85;;;8.63;95.06
74790;BME280;63318;52.406;13.416;2024-02-15T03:55:30;101397.23;;;8.63;95.03
74790;BME280;63318;52.406;13.416;2024-02-15T03:57:58;101395.14;;;8.63;95.03
74790;BME280;63318;52.406;13.416;2024-02-15T04:00:26;101400.30;;;8.63;95.08
74790;BME280;63318;52.406;13.416;2024-02-15T04:02:54;101397.09;;;8.64;95.06
74790;BME280;63318;52.406;13.416;2024-02-15T04:05:23;101396.65;;;8.64;95.22
74790;BME280;63318;52.406;13.416;2024-02-15T04:07:51;101393.66;;;8.64;94.96
74790;BME280;63318;52.406;13.416;2024-02-15T04:10:19;101395.44;;;8.65;95.10
74790;BME280;63318;52.406;13.416;2024-02-15T04:12:47;101391.56;;;8.65;95.11
74790;BME280;63318;52.406;13.416;2024-02-15T04:15:16;101389.64;;;8.65;95.22
74790;BME280;63318;52.406;13.416;2024-02-15T04:17:44;101388.87;;;8.65;95.31
74790;BME280;63318;52.406;13.416;2024-02-15T04:20:12;101387.72;;;8.65;95.12
74790;BME280;63318;52.406;13.416;2024-02-15T04:22:40;101389.67;;;8.66;95.25
74790;BME280;63318;52.406;13.416;2024-02-15T04:25:09;101390.55;;;8.66;95.30
74790;BME280;63318;52.406;13.416;2024-02-15T04:27:37;101392.73;;;8.67;95.17
74790;BME280;63318;52.406;13.416;2024-02-15T04:30:07;101392.57;;;8.67;95.18
74790;BME280;63318;52.406;13.416;2024-02-15T04:32:36;101393.41;;;8.68;95.21
74790;BME280;63318;52.406;13.416;2024-02-15T04:35:05;101392.48;;;8.68;95.08
74790;BME280;63318;52.406;13.416;2024-02-15T04:37:33;101390.66;;;8.69;95.28
74790;BME280;63318;52.406;13.416;2024-02-15T04:40:01;101388.69;;;8.70;95.36
74790;BME280;63318;52.406;13.416;2024-02-15T04:42:30;101393.63;;;8.70;95.43
74790;BME280;63318;52.406;13.416;2024-02-15T04:44:58;101390.87;;;8.71;95.47
74790;BME280;63318;52.406;13.416;2024-02-15T04:47:26;101386.61;;;8.71;95.53
74790;BME280;63318;52.406;13.416;2024-02-15T04:49:54;101386.73;;;8.72;95.32
74790;BME280;63318;52.406;13.416;2024-02-15T04:52:22;101388.16;;;8.72;95.27
74790;BME280;63318;52.406;13.416;2024-02-15T04:54:51;101389.90;;;8.73;95.28
74790;BME280;63318;52.406;13.416;2024-02-15T04:57:19;101391.04;;;8.73;95.18
74790;BME280;63318;52.406;13.416;2024-02-15T04:59:47;101389.94;;;8.75;95.28
74790;BME280;63318;52.406;13.416;2024-02-15T05:02:15;101395.16;;;8.75;95.35
74790;BME280;63318;52.406;13.416;2024-02-15T05:04:44;101395.02;;;8.76;95.31
74790;BME280;63318;52.406;13.416;2024-02-15T05:07:12;101393.26;;;8.77;95.57
74790;BME280;63318;52.406;13.416;2024-02-15T05:09:40;101394.61;;;8.77;95.42
74790;BME280;63318;52.406;13.416;2024-02-15T05:12:09;101394.05;;;8.77;95.50
74790;BME280;63318;52.406;13.416;2024-02-15T05:14:37;101399.27;;;8.78;95.69
74790;BME280;63318;52.406;13.416;2024-02-15T05:17:05;101400.63;;;8.79;95.64
74790;BME280;63318;52.406;13.416;2024-02-15T05:19:33;101400.64;;;8.80;95.55
74790;BME280;63318;52.406;13.416;2024-02-15T05:22:01;101400.48;;;8.81;95.70
74790;BME280;63318;52.406;13.416;2024-02-15T05:24:30;101402.10;;;8.81;95.85
74790;BME280;63318;52.406;13.416;2024-02-15T05:26:58;101395.20;;;8.82;95.83
74790;BME280;63318;52.406;13.416;2024-02-15T05:29:26;101393.82;;;8.82;95.64
74790;BME280;63318;52.406;13.416;2024-02-15T05:31:54;101394.81;;;8.83;95.79
74790;BME280;63318;52.406;13.416;2024-02-15T05:34:23;101393.84;;;8.83;95.73
74790;BME280;63318;52.406;13.416;2024-02-15T05:36:51;101395.83;;;8.83;95.84
74790;BME280;63318;52.406;13.416;2024-02-15T05:39:19;101398.83;;;8.83;95.80
74790;BME280;63318;52.406;13.416;2024-02-15T05:41:47;101397.58;;;8.84;95.82
74790;BME280;63318;52.406;13.416;2024-02-15T05:44:16;101401.34;;;8.85;95.69
74790;BME280;63318;52.406;13.416;2024-02-15T05:46:44;101402.91;;;8.86;95.85
74790;BME280;63318;52.406;13.416;2024-02-15T05:49:12;101404.30;;;8.86;95.74
74790;BME280;63318;52.406;13.416;2024-02-15T05:51:40;101405.88;;;8.87;95.72
74790;BME280;63318;52.406;13.416;2024-02-15T05:54:09;101406.89;;;8.87;95.97
74790;BME280;63318;52.406;13.416;2024-02-15T05:56:37;101407.66;;;8.88;95.85
74790;BME280;63318;52.406;13.416;2024-02-15T05:59:05;101406.85;;;8.88;95.93
74790;BME280;63318;52.406;13.416;2024-02-15T06:01:33;101404.93;;;8.89;96.00
74790;BME280;63318;52.406;13.416;2024-02-15T06:04:02;101405.33;;;8.90;96.05
74790;BME280;63318;52.406;13.416;2024-02-15T06:06:30;101403.39;;;8.90;95.95
74790;BME280;63318;52.406;13.416;2024-02-15T06:08:58;101403.24;;;8.91;95.94
74790;BME280;63318;52.406;13.416;2024-02-15T06:11:26;101403.16;;;8.92;96.04
74790;BME280;63318;52.406;13.416;2024-02-15T06:13:55;101402.19;;;8.93;96.02
74790;BME280;63318;52.406;13.416;2024-02-15T06:16:23;101403.58;;;8.94;96.05
74790;BME280;63318;52.406;13.416;2024-02-15T06:18:52;101402.88;;;8.95;95.91
74790;BME280;63318;52.406;13.416;2024-02-15T06:21:20;101406.36;;;8.95;96.02
74790;BME280;63318;52.406;13.416;2024-02-15T06:23:48;101407.41;;;8.95;95.90
74790;BME280;63318;52.406;13.416;2024-02-15T06:26:17;101409.55;;;8.96;96.08
74790;BME280;63318;52.406;13.416;2024-02-15T06:28:45;101412.83;;;8.96;96.14
74790;BME280;63318;52.406;13.416;2024-02-15T06:31:14;101414.38;;;8.96;96.02
74790;BME280;63318;52.406;13.416;2024-02-15T06:33:43;101415.73;;;8.97;96.02
74790;BME280;63318;52.406;13.416;2024-02-15T06:36:11;101420.06;;;8.98;96.05
74790;BME280;63318;52.406;13.416;2024-02-15T06:38:40;101421.24;;;8.98;95.86
74790;BME280;63318;52.406;13.416;2024-02-15T06:41:08;101419.27;;;9.00;95.99
74790;BME280;63318;52.406;13.416;2024-02-15T06:43:36;101416.35;;;9.00;96.05
74790;BME280;63318;52.406;13.416;2024-02-15T06:46:07;101421.13;;;9.02;96.04
74790;BME280;63318;52.406;13.416;2024-02-15T06:48:35;101424.87;;;9.03;96.10
74790;BME280;63318;52.406;13.416;2024-02-15T06:51:04;101430.66;;;9.04;96.04
74790;BME280;63318;52.406;13.416;2024-02-15T06:53:32;101430.89;;;9.05;96.18
74790;BME280;63318;52.406;13.416;2024-02-15T06:56:00;101434.75;;;9.06;96.19
74790;BME280;63318;52.406;13.416;2024-02-15T06:58:29;101437.64;;;9.07;96.29
74790;BME280;63318;52.406;13.416;2024-02-15T07:00:57;101436.89;;;9.08;96.25
74790;BME280;63318;52.406;13.416;2024-02-15T07:03:25;101443.34;;;9.09;96.22
74790;BME280;63318;52.406;13.416;2024-02-15T07:05:54;101445.60;;;9.11;96.26
74790;BME280;63318;52.406;13.416;2024-02-15T07:08:23;101447.55;;;9.12;96.31
74790;BME280;63318;52.406;13.416;2024-02-15T07:10:51;101448.73;;;9.13;96.39
74790;BME280;63318;52.406;13.416;2024-02-15T07:13:20;101445.88;;;9.14;96.21
74790;BME280;63318;52.406;13.416;2024-02-15T07:15:48;101446.17;;;9.16;96.19
74790;BME280;63318;52.406;13.416;2024-02-15T07:18:18;101450.02;;;9.17;96.23
74790;BME280;63318;52.406;13.416;2024-02-15T07:20:48;101452.21;;;9.18;96.44
74790;BME280;63318;52.406;13.416;2024-02-15T07:23:16;101456.02;;;9.20;96.35
74790;BME280;63318;52.406;13.416;2024-02-15T07:25:44;101451.95;;;9.21;96.16
74790;BME280;63318;52.406;13.416;2024-02-15T07:28:13;101451.70;;;9.23;96.12
74790;BME280;63318;52.406;13.416;2024-02-15T07:30:41;101446.67;;;9.24;96.18
74790;BME280;63318;52.406;13.416;2024-02-15T07:33:09;101448.82;;;9.26;96.14
74790;BME280;63318;52.406;13.416;2024-02-15T07:35:37;101449.40;;;9.28;96.12
74790;BME280;63318;52.406;13.416;2024-02-15T07:38:06;101451.27;;;9.29;96.27
74790;BME280;63318;52.406;13.416;2024-02-15T07:40:34;101451.17;;;9.30;96.06
74790;BME280;63318;52.406;13.416;2024-02-15T07:43:02;101456.47;;;9.32;96.28
74790;BME280;63318;52.406;13.416;2024-02-15T07:45:31;101452.95;;;9.33;96.21
74790;BME280;63318;52.406;13.416;2024-02-15T07:47:59;101449.98;;;9.34;96.36
74790;BME280;63318;52.406;13.416;2024-02-15T07:50:27;101451.89;;;9.36;96.19
74790;BME280;63318;52.406;13.416;2024-02-15T07:52:56;101451.65;;;9.38;96.37
74790;BME280;63318;52.406;13.416;2024-02-15T07:55:24;101452.68;;;9.39;96.50
74790;BME280;63318;52.406;13.416;2024-02-15T07:57:53;101448.23;;;9.41;96.38
74790;BME280;63318;52.406;13.416;2024-02-15T08:00:21;101443.80;;;9.43;96.31
74790;BME280;63318;52.406;13.416;2024-02-15T08:02:49;101442.48;;;9.45;96.46
74790;BME280;63318;52.406;13.416;2024-02-15T08:05:18;101444.31;;;9.46;96.25
74790;BME280;63318;52.406;13.416;2024-02-15T08:07:46;101441.52;;;9.48;96.30
74790;BME280;63318;52.406;13.416;2024-02-15T08:10:15;101438.73;;;9.50;96.23
74790;BME280;63318;52.406;13.416;2024-02-15T08:12:44;101442.48;;;9.52;96.28
74790;BME280;63318;52.406;13.416;2024-02-15T08:15:13;101442.80;;;9.54;96.36
74790;BME280;63318;52.406;13.416;2024-02-15T08:17:43;101443.80;;;9.57;96.35
74790;BME280;63318;52.406;13.416;2024-02-15T08:20:12;101445.13;;;9.60;96.40
74790;BME280;63318;52.406;13.416;2024-02-15T08:22:42;101445.91;;;9.63;96.47
74790;BME280;63318;52.406;13.416;2024-02-15T08:25:12;101444.23;;;9.67;96.56
74790;BME280;63318;52.406;13.416;2024-02-15T08:27:41;101448.35;;;9.70;96.50
74790;BME280;63318;52.406;13.416;2024-02-15T08:30:13;101450.95;;;9.73;96.37
74790;BME280;63318;52.406;13.416;2024-02-15T08:32:42;101453.61;;;9.76;96.59
74790;BME280;63318;52.406;13.416;2024-02-15T08:35:12;101457.07;;;9.79;96.61
74790;BME280;63318;52.406;13.416;2024-02-15T08:37:40;101453.44;;;9.82;96.38
74790;BME280;63318;52.406;13.416;2024-02-15T08:40:12;101454.31;;;9.84;96.41
74790;BME280;63318;52.406;13.416;2024-02-15T08:42:41;101452.55;;;9.86;96.52
74790;BME280;63318;52.406;13.416;2024-02-15T08:45:11;101451.98;;;9.88;96.54
74790;BME280;63318;52.406;13.416;2024-02-15T08:47:41;101452.36;;;9.90;96.57
74790;BME280;63318;52.406;13.416;2024-02-15T08:50:11;101454.61;;;9.92;96.60
74790;BME280;63318;52.406;13.416;2024-02-15T08:52:40;101455.59;;;9.94;96.54
74790;BME280;63318;52.406;13.416;2024-02-15T08:55:09;101452.83;;;9.95;96.46
74790;BME280;63318;52.406;13.416;2024-02-15T08:57:39;101455.35;;;9.97;96.64
74790;BME280;63318;52.406;13.416;2024-02-15T09:00:10;101454.38;;;9.98;96.33
74790;BME280;63318;52.406;13.416;2024-02-15T09:02:38;101453.73;;;10.00;96.36
74790;BME280;63318;52.406;13.416;2024-02-15T09:05:08;101453.01;;;10.02;96.62
74790;BME280;63318;52.406;13.416;2024-02-15T09:07:36;101453.52;;;10.04;96.43
74790;BME280;63318;52.406;13.416;2024-02-15T09:10:09;101450.52;;;10.08;96.56
74790;BME280;63318;52.406;13.416;2024-02-15T09:12:37;101448.36;;;10.11;96.48
74790;BME280;63318;52.406;13.416;2024-02-15T09:15:07;101446.55;;;10.15;96.58
74790;BME280;63318;52.406;13.416;2024-02-15T09:17:36;101447.58;;;10.19;96.70
74790;BME280;63318;52.406;13.416;2024-02-15T09:20:07;101448.70;;;10.23;96.67
74790;BME280;63318;52.406;13.416;2024-02-15T09:22:35;101448.87;;;10.28;96.57
74790;BME280;63318;52.406;13.416;2024-02-15T09:25:04;101452.37;;;10.34;96.63
74790;BME280;63318;52.406;13.416;2024-02-15T09:27:32;101458.39;;;10.40;96.58
74790;BME280;63318;52.406;13.416;2024-02-15T09:30:01;101459.36;;;10.45;96.67
74790;BME280;63318;52.406;13.416;2024-02-15T09:32:29;101459.64;;;10.50;96.60
74790;BME280;63318;52.406;13.416;2024-02-15T09:34:57;101457.00;;;10.52;96.47
74790;BME280;63318;52.406;13.416;2024-02-15T09:37:26;101458.68;;;10.53;96.40
74790;BME280;63318;52.406;13.416;2024-02-15T09:39:55;101454.30;;;10.54;96.42
74790;BME280;63318;52.406;13.416;2024-02-15T09:42:29;101457.38;;;10.55;96.37
74790;BME280;63318;52.406;13.416;2024-02-15T09:44:57;101463.13;;;10.56;96.40
74790;BME280;63318;52.406;13.416;2024-02-15T09:47:28;101466.74;;;10.57;96.35
74790;BME280;63318;52.406;13.416;2024-02-15T09:50:00;101468.41;;;10.57;96.30
74790;BME280;63318;52.406;13.416;2024-02-15T09:52:31;101468.40;;;10.57;96.29
74790;BME280;63318;52.406;13.416;2024-02-15T09:55:00;101470.48;;;10.58;96.30
74790;BME280;63318;52.406;13.416;2024-02-15T09:57:30;101470.15;;;10.59;96.30
74790;BME280;63318;52.406;13.416;2024-02-15T09:59:59;101472.30;;;10.61;96.30
74790;BME280;63318;52.406;13.416;2024-02-15T10:02:28;101476.92;;;10.65;96.34
74790;BME280;63318;52.406;13.416;2024-02-15T10:04:56;101480.52;;;10.67;96.39
74790;BME280;63318;52.406;13.416;2024-02-15T10:07:25;101479.44;;;10.70;96.45
74790;BME280;63318;52.406;13.416;2024-02-15T10:09:54;101483.03;;;10.73;96.41
74790;BME280;63318;52.406;13.416;2024-02-15T10:12:22;101479.95;;;10.76;96.40
74790;BME280;63318;52.406;13.416;2024-02-15T10:15:05;101477.62;;;10.80;96.36
74790;BME280;63318;52.406;13.416;2024-02-15T10:17:34;101479.40;;;10.84;96.42
74790;BME280;63318;52.406;13.416;2024-02-15T10:20:07;101473.49;;;10.87;96.38
74790;BME280;63318;52.406;13.416;2024-02-15T10:22:35;101474.09;;;10.91;96.36
74790;BME280;63318;52.406;13.416;2024-02-15T10:25:14;101466.69;;;10.94;96.30
74790;BME280;63318;52.406;13.416;2024-02-15T10:27:44;101467.23;;;10.98;96.35
74790;BME280;63318;52.406;13.416;2024-02-15T10:30:20;101469.86;;;11.03;96.34
74790;BME280;63318;52.406;13.416;2024-02-15T10:32:49;101476.13;;;11.10;96.33
74790;BME280;63318;52.406;13.416;2024-02-15T10:35:24;101472.63;;;11.15;96.32
74790;BME280;63318;52.406;13.416;2024-02-15T10:37:52;101470.73;;;11.21;96.20
74790;BME280;63318;52.406;13.416;2024-02-15T10:40:32;101468.73;;;11.26;96.27
74790;BME280;63318;52.406;13.416;2024-02-15T10:43:01;101466.90;;;11.30;96.14
74790;BME280;63318;52.406;13.416;2024-02-15T10:45:32;101467.11;;;11.35;95.97
74790;BME280;63318;52.406;13.416;2024-02-15T10:48:00;101461.86;;;11.38;95.98
74790;BME280;63318;52.406;13.416;2024-02-15T10:50:28;101460.05;;;11.41;95.91
74790;BME280;63318;52.406;13.416;2024-02-15T10:52:58;101463.60;;;11.44;95.94
74790;BME280;63318;52.406;13.416;2024-02-15T10:55:37;101462.63;;;11.48;95.77
74790;BME280;63318;52.406;13.416;2024-02-15T10:58:07;101461.04;;;11.50;95.58
74790;BME280;63318;52.406;13.416;2024-02-15T11:00:37;101461.05;;;11.52;95.53
74790;BME280;63318;52.406;13.416;2024-02-15T11:03:08;101460.14;;;11.54;95.50
74790;BME280;63318;52.406;13.416;2024-02-15T11:05:39;101463.67;;;11.56;95.49
74790;BME280;63318;52.406;13.416;2024-02-15T11:08:10;101462.07;;;11.58;95.48
74790;BME280;63318;52.406;13.416;2024-02-15T11:10:39;101462.42;;;11.61;95.53
74790;BME280;63318;52.406;13.416;2024-02-15T11:13:09;101461.98;;;11.65;95.56
74790;BME280;63318;52.406;13.416;2024-02-15T11:15:45;101458.48;;;11.69;95.57
74790;BME280;63318;52.406;13.416;2024-02-15T11:18:14;101457.36;;;11.75;95.52
74790;BME280;63318;52.406;13.416;2024-02-15T11:21:02;101453.13;;;11.80;95.46
74790;BME280;63318;52.406;13.416;2024-02-15T11:23:31;101451.27;;;11.86;95.37
74790;BME280;63318;52.406;13.416;2024-02-15T11:25:59;101448.66;;;11.93;95.36
74790;BME280;63318;52.406;13.416;2024-02-15T11:28:45;101450.50;;;11.99;95.33
74790;BME280;63318;52.406;13.416;2024-02-15T11:34:43;101450.20;;;12.10;95.07
74790;BME280;63318;52.406;13.416;2024-02-15T11:40:59;101447.98;;;12.19;94.84
74790;BME280;63318;52.406;13.416;2024-02-15T11:43:47;101447.21;;;12.21;94.75
74790;BME280;63318;52.406;13.416;2024-02-15T11:46:16;101448.34;;;12.24;94.86
74790;BME280;63318;52.406;13.416;2024-02-15T11:48:45;101446.58;;;12.25;94.63
74790;BME280;63318;52.406;13.416;2024-02-15T11:51:32;101447.47;;;12.26;94.57
74790;BME280;63318;52.406;13.416;2024-02-15T11:54:02;101446.75;;;12.28;94.56
74790;BME280;63318;52.406;13.416;2024-02-15T11:56:31;101450.22;;;12.28;94.47
74790;BME280;63318;52.406;13.416;2024-02-15T11:59:07;101450.22;;;12.28;94.35
74790;BME280;63318;52.406;13.416;2024-02-15T12:01:35;101449.55;;;12.27;94.32
74790;BME280;63318;52.406;13.416;2024-02-15T12:04:04;101447.80;;;12.27;94.26
74790;BME280;63318;52.406;13.416;2024-02-15T12:06:33;101447.71;;;12.27;94.14
74790;BME280;63318;52.406;13.416;2024-02-15T12:09:02;101441.42;;;12.28;94.16
74790;BME280;63318;52.406;13.416;2024-02-15T12:11:30;101436.47;;;12.29;94.16
74790;BME280;63318;52.406;13.416;2024-02-15T12:13:59;101435.62;;;12.29;94.15
74790;BME280;63318;52.406;13.416;2024-02-15T12:16:27;101432.13;;;12.30;94.07
74790;BME280;63318;52.406;13.416;2024-02-15T12:18:56;101426.60;;;12.31;94.04
74790;BME280;63318;52.406;13.416;2024-02-15T12:21:26;101427.73;;;12.32;93.94
74790;BME280;63318;52.406;13.416;2024-02-15T12:23:55;101425.23;;;12.33;94.00
74790;BME280;63318;52.406;13.416;2024-02-15T12:26:23;101424.58;;;12.33;93.97
74790;BME280;63318;52.406;13.416;2024-02-15T12:28:55;101420.16;;;12.35;93.86
74790;BME280;63318;52.406;13.416;2024-02-15T12:31:26;101417.35;;;12.37;93.81
74790;BME280;63318;52.406;13.416;2024-02-15T12:34:05;101412.61;;;12.39;93.79
74790;BME280;63318;52.406;13.416;2024-02-15T12:36:33;101414.91;;;12.41;93.84
74790;BME280;63318;52.406;13.416;2024-02-15T12:39:04;101414.32;;;12.44;93.82
74790;BME280;63318;52.406;13.416;2024-02-15T12:41:33;101410.32;;;12.47;93.65
74790;BME280;63318;52.406;13.416;2024-02-15T12:44:01;101404.98;;;12.51;93.55
74790;BME280;63318;52.406;13.416;2024-02-15T12:46:29;101399.71;;;12.56;93.43
74790;BME280;63318;52.406;13.416;2024-02-15T12:49:27;101397.08;;;12.62;93.53
74790;BME280;63318;52.406;13.416;2024-02-15T12:52:34;101390.59;;;12.69;93.50
74790;BME280;63318;52.406;13.416;2024-02-15T12:55:33;101385.32;;;12.76;93.35
74790;BME280;63318;52.406;13.416;2024-02-15T12:58:03;101382.95;;;12.82;93.34
74790;BME280;63318;52.406;13.416;2024-02-15T13:00:32;101383.62;;;12.86;93.42
74790;BME280;63318;52.406;13.416;2024-02-15T13:03:01;101383.75;;;12.90;93.09
74790;BME280;63318;52.406;13.416;2024-02-15T13:05:32;101384.88;;;12.94;93.15